createdAt,value
2018-06-05T00:01:53.303Z,12.67
2018-06-05T00:04:22.410Z,12.63
2018-06-05T00:06:51.439Z,13.47
2018-06-05T00:09:20.486Z,12.80
2018-06-05T00:11:49.539Z,14.00
2018-06-05T00:14:18.569Z,13.50
2018-06-05T00:16:47.559Z,13.53
2018-06-05T00:19:16.589Z,13.33
2018-06-05T00:21:45.591Z,14.30
2018-06-05T00:24:14.648Z,13.27
2018-06-05T00:26:43.651Z,13.20
2018-06-05T00:29:12.696Z,12.70
2018-06-05T00:31:41.692Z,13.30
2018-06-05T00:34:10.728Z,13.80
2018-06-05T00:36:39.807Z,14.40
2018-06-05T00:39:08.803Z,14.57
2018-06-05T00:41:37.832Z,14.73
2018-06-05T00:44:06.891Z,14.40
2018-06-05T00:46:35.923Z,14.70
2018-06-05T00:49:05.017Z,13.70
2018-06-05T00:51:45.241Z,14.70
2018-06-05T00:54:14.288Z,14.53
2018-06-05T00:56:43.083Z,14.37
2018-06-05T00:59:11.959Z,14.43
2018-06-05T01:01:41.023Z,14.23
2018-06-05T01:04:10.011Z,15.30
2018-06-05T01:06:39.074Z,14.73
2018-06-05T01:09:08.366Z,14.40
2018-06-05T01:11:37.415Z,16.37
2018-06-05T01:14:06.439Z,14.43
2018-06-05T01:19:02.568Z,16.30
2018-06-05T01:21:31.596Z,15.90
2018-06-05T01:24:00.711Z,15.93
2018-06-05T01:26:29.711Z,14.80
2018-06-05T01:28:58.759Z,16.37
2018-06-05T01:31:27.797Z,15.97
2018-06-05T01:33:56.838Z,15.67
2018-06-05T01:36:25.858Z,15.37
2018-06-05T01:38:54.879Z,15.57
2018-06-05T01:41:23.945Z,15.80
2018-06-05T01:43:52.954Z,15.83
2018-06-05T01:46:22.071Z,15.83
2018-06-05T01:48:51.051Z,15.90
2018-06-05T01:51:20.134Z,15.23
2018-06-05T01:53:49.139Z,16.60
2018-06-05T01:56:18.197Z,15.93
2018-06-05T01:58:47.087Z,16.03
2018-06-05T02:01:16.100Z,15.70
2018-06-05T02:03:45.143Z,15.80
2018-06-05T02:06:14.225Z,17.17
2018-06-05T02:08:43.307Z,17.50
2018-06-05T02:11:12.339Z,17.03
2018-06-05T02:13:41.404Z,17.43
2018-06-05T02:16:10.483Z,17.33
2018-06-05T02:18:39.503Z,18.43
2018-06-05T02:21:08.507Z,18.63
2018-06-05T02:23:37.669Z,17.50
2018-06-05T02:26:06.800Z,17.73
2018-06-05T02:28:35.866Z,19.17
2018-06-05T02:31:04.883Z,17.53
2018-06-05T02:33:33.923Z,16.67
2018-06-05T02:36:03.037Z,16.57
2018-06-05T02:41:07.515Z,13.90
2018-06-05T02:43:36.568Z,14.17
2018-06-05T02:46:05.665Z,15.20
2018-06-05T02:48:34.819Z,14.13
2018-06-05T02:51:03.864Z,13.80
2018-06-05T02:53:32.884Z,14.60
2018-06-05T02:56:01.936Z,14.37
2018-06-05T02:58:30.973Z,14.70
2018-06-05T03:00:59.971Z,15.07
2018-06-05T03:03:28.951Z,14.83
2018-06-05T03:05:58.021Z,15.57
2018-06-05T03:08:27.076Z,15.23
2018-06-05T03:10:56.075Z,15.50
2018-06-05T03:13:25.111Z,16.77
2018-06-05T03:15:54.126Z,16.03
2018-06-05T03:18:23.129Z,17.10
2018-06-05T03:20:52.195Z,18.80
2018-06-05T03:23:21.186Z,17.30
2018-06-05T03:25:50.205Z,18.13
2018-06-05T03:28:19.203Z,16.17
2018-06-05T03:30:48.207Z,16.33
2018-06-05T03:33:17.466Z,18.57
2018-06-05T03:35:46.563Z,18.47
2018-06-05T03:38:15.636Z,17.00
2018-06-05T03:40:44.812Z,17.60
2018-06-05T03:43:13.919Z,17.20
2018-06-05T03:45:43.031Z,17.10
2018-06-05T03:48:12.047Z,17.03
2018-06-05T03:50:41.115Z,15.17
2018-06-05T03:53:10.170Z,17.33
2018-06-05T03:55:39.223Z,15.93
2018-06-05T03:58:08.323Z,16.57
2018-06-05T04:00:37.386Z,16.77
2018-06-05T04:03:06.396Z,17.13
2018-06-05T04:05:35.583Z,17.43
2018-06-05T04:08:10.830Z,18.27
2018-06-05T04:10:39.756Z,19.53
2018-06-05T04:13:08.767Z,18.90
2018-06-05T04:15:37.905Z,17.87
2018-06-05T04:18:06.925Z,20.27
2018-06-05T04:20:35.963Z,22.40
2018-06-05T04:23:05.007Z,26.20
2018-06-05T04:25:34.027Z,26.10
2018-06-05T04:28:03.043Z,22.67
2018-06-05T04:30:32.153Z,24.93
2018-06-05T04:33:01.210Z,24.80
2018-06-05T04:35:30.287Z,24.87
2018-06-05T04:37:59.355Z,25.40
2018-06-05T04:40:28.378Z,25.97
2018-06-05T04:42:57.444Z,25.53
2018-06-05T04:45:26.548Z,25.57
2018-06-05T04:47:55.900Z,27.63
2018-06-05T04:50:25.020Z,27.00
2018-06-05T04:52:54.099Z,24.57
2018-06-05T04:55:23.112Z,26.73
2018-06-05T04:57:52.123Z,23.93
2018-06-05T05:00:22.455Z,27.27
2018-06-05T05:02:51.546Z,25.67
2018-06-05T05:05:20.673Z,28.80
2018-06-05T05:07:49.946Z,26.67
2018-06-05T05:10:19.019Z,27.20
2018-06-05T05:12:48.026Z,26.50
2018-06-05T05:15:17.099Z,26.57
2018-06-05T05:17:46.114Z,24.83
2018-06-05T05:20:15.312Z,26.97
2018-06-05T05:22:44.959Z,27.00
2018-06-05T05:25:13.972Z,26.40
2018-06-05T05:27:43.192Z,29.13
2018-06-05T05:30:12.210Z,28.67
2018-06-05T05:32:41.219Z,27.93
2018-06-05T05:35:10.231Z,30.50
2018-06-05T05:37:39.267Z,29.30
2018-06-05T05:40:08.276Z,30.87
2018-06-05T05:42:37.418Z,31.00
2018-06-05T05:45:06.697Z,30.57
2018-06-05T05:47:35.720Z,29.87
2018-06-05T05:50:04.731Z,28.07
2018-06-05T05:52:33.756Z,29.50
2018-06-05T05:55:02.787Z,27.83
2018-06-05T05:57:31.780Z,27.93
2018-06-05T06:00:00.807Z,28.00
2018-06-05T06:02:29.789Z,28.03
2018-06-05T06:04:58.877Z,27.23
2018-06-05T06:07:27.868Z,26.67
2018-06-05T06:09:56.895Z,27.40
2018-06-05T06:12:25.975Z,25.97
2018-06-05T06:14:55.028Z,28.03
2018-06-05T06:17:24.233Z,27.70
2018-06-05T06:19:53.231Z,26.27
2018-06-05T06:22:22.277Z,25.00
2018-06-05T06:24:51.303Z,25.13
2018-06-05T06:27:20.295Z,25.97
2018-06-05T06:29:49.302Z,22.93
2018-06-05T06:32:18.530Z,24.50
2018-06-05T06:34:47.531Z,22.50
2018-06-05T06:37:16.532Z,20.97
2018-06-05T06:39:45.592Z,19.67
2018-06-05T06:42:14.596Z,18.83
2018-06-05T06:44:43.600Z,19.63
2018-06-05T06:47:12.620Z,18.13
2018-06-05T06:49:41.632Z,19.43
2018-06-05T06:52:10.695Z,18.40
2018-06-05T06:54:39.957Z,17.53
2018-06-05T06:57:08.963Z,18.97
2018-06-05T06:59:37.976Z,18.03
2018-06-05T07:02:07.025Z,18.50
2018-06-05T07:04:36.083Z,18.40
2018-06-05T07:07:05.079Z,19.57
2018-06-05T07:09:34.114Z,20.47
2018-06-05T07:12:03.109Z,17.17
2018-06-05T07:14:32.112Z,18.37
2018-06-05T07:17:01.159Z,16.43
2018-06-05T07:19:30.184Z,16.77
2018-06-05T07:21:59.196Z,18.70
2018-06-05T07:24:28.253Z,17.73
2018-06-05T07:26:57.610Z,19.50
2018-06-05T07:29:26.622Z,15.20
2018-06-05T07:31:56.068Z,16.00
2018-06-05T07:34:25.103Z,18.47
2018-06-05T07:36:54.205Z,18.93
2018-06-05T07:39:23.224Z,17.23
2018-06-05T07:41:52.239Z,16.83
2018-06-05T07:44:21.298Z,14.27
2018-06-05T07:46:50.334Z,17.70
2018-06-05T07:49:19.372Z,17.50
2018-06-05T07:51:48.444Z,17.43
2018-06-05T07:54:17.577Z,16.73
2018-06-05T07:56:46.636Z,17.60
2018-06-05T07:59:15.644Z,16.60
2018-06-05T08:01:44.739Z,14.97
2018-06-05T08:04:13.789Z,18.70
2018-06-05T08:06:42.838Z,19.33
2018-06-05T08:09:11.856Z,18.83
2018-06-05T08:11:40.864Z,20.40
2018-06-05T08:14:09.910Z,16.73
2018-06-05T08:16:39.036Z,16.83
2018-06-05T08:19:08.150Z,14.50
2018-06-05T08:21:37.242Z,25.50
2018-06-05T08:24:06.304Z,18.83
2018-06-05T08:26:53.538Z,18.50
2018-06-05T08:29:22.859Z,17.97
2018-06-05T08:31:51.871Z,17.40
2018-06-05T08:34:20.953Z,17.03
2018-06-05T08:36:50.019Z,16.27
2018-06-05T08:39:19.027Z,15.43
2018-06-05T08:41:48.056Z,15.47
2018-06-05T08:44:17.062Z,15.53
2018-06-05T08:46:46.135Z,14.27
2018-06-05T08:49:15.171Z,14.50
2018-06-05T08:51:44.295Z,15.87
2018-06-05T08:54:13.367Z,13.20
2018-06-05T08:56:42.340Z,13.13
2018-06-05T08:59:11.371Z,12.63
2018-06-05T09:01:40.524Z,11.57
2018-06-05T09:04:09.520Z,13.77
2018-06-05T09:06:38.832Z,13.07
2018-06-05T09:09:08.342Z,14.40
2018-06-05T09:11:37.366Z,13.03
2018-06-05T09:14:06.432Z,13.77
2018-06-05T09:16:35.451Z,13.10
2018-06-05T09:19:04.509Z,13.57
2018-06-05T09:21:33.629Z,14.53
2018-06-05T09:24:02.727Z,13.90
2018-06-05T09:26:31.726Z,15.47
2018-06-05T09:29:00.802Z,13.80
2018-06-05T09:31:29.773Z,16.03
2018-06-05T09:33:58.807Z,14.43
2018-06-05T09:36:27.858Z,15.17
2018-06-05T09:38:56.903Z,14.17
2018-06-05T09:41:26.044Z,14.93
2018-06-05T09:43:55.071Z,17.00
2018-06-05T09:46:24.119Z,15.33
2018-06-05T09:48:53.319Z,14.40
2018-06-05T09:51:22.380Z,16.27
2018-06-05T09:53:51.391Z,15.03
2018-06-05T09:56:20.430Z,14.27
2018-06-05T09:58:49.455Z,13.93
2018-06-05T10:01:18.528Z,12.70
2018-06-05T10:03:47.584Z,13.47
2018-06-05T10:06:16.652Z,10.63
2018-06-05T10:08:45.683Z,12.50
2018-06-05T10:11:14.762Z,11.10
2018-06-05T10:13:43.752Z,10.53
2018-06-05T10:16:12.819Z,11.03
2018-06-05T10:18:41.852Z,9.90
2018-06-05T10:21:10.862Z,10.93
2018-06-05T10:23:39.983Z,12.47
2018-06-05T10:26:09.039Z,8.57
2018-06-05T10:28:38.093Z,8.87
2018-06-05T10:31:07.121Z,10.77
2018-06-05T10:33:36.124Z,11.70
2018-06-05T10:36:05.151Z,11.93
2018-06-05T10:38:34.251Z,10.50
2018-06-05T10:41:03.293Z,11.13
2018-06-05T10:43:32.302Z,12.10
2018-06-05T10:46:01.355Z,12.93
2018-06-05T10:48:30.362Z,12.00
2018-06-05T10:50:59.420Z,12.33
2018-06-05T10:53:28.411Z,11.87
2018-06-05T10:55:57.424Z,11.40
2018-06-05T10:58:26.456Z,11.00
2018-06-05T11:00:55.467Z,12.03
2018-06-05T11:03:24.553Z,13.07
2018-06-05T11:05:53.583Z,13.53
2018-06-05T11:08:22.627Z,14.93
2018-06-05T11:10:51.684Z,12.57
2018-06-05T11:13:20.734Z,13.97
2018-06-05T11:15:49.749Z,11.53
2018-06-05T11:18:18.814Z,11.33
2018-06-05T11:20:47.847Z,11.47
2018-06-05T11:23:16.956Z,11.13
2018-06-05T11:25:45.942Z,12.23
2018-06-05T11:28:15.045Z,11.77
2018-06-05T11:30:44.979Z,12.07
2018-06-05T11:33:14.043Z,10.90
2018-06-05T11:35:43.253Z,10.73
2018-06-05T11:38:12.306Z,10.40
2018-06-05T11:40:41.402Z,9.43
2018-06-05T11:43:10.571Z,10.83
2018-06-05T11:45:39.654Z,11.60
2018-06-05T11:48:08.702Z,12.43
2018-06-05T11:50:37.740Z,11.30
2018-06-05T11:53:06.809Z,12.70
2018-06-05T11:55:35.844Z,12.90
2018-06-05T11:58:04.927Z,12.33
2018-06-05T12:00:33.951Z,13.60
2018-06-05T12:03:03.070Z,13.47
2018-06-05T12:05:32.156Z,12.73
2018-06-05T12:08:01.217Z,14.40
2018-06-05T12:10:30.310Z,13.50
2018-06-05T12:13:00.030Z,13.40
2018-06-05T12:15:29.093Z,12.33
2018-06-05T12:17:58.147Z,12.07
2018-06-05T12:20:27.226Z,11.80
2018-06-05T12:22:56.335Z,11.80
2018-06-05T12:25:25.366Z,11.60
2018-06-05T12:27:54.449Z,10.30
2018-06-05T12:30:23.513Z,10.63
2018-06-05T12:32:52.582Z,10.80
2018-06-05T12:35:21.649Z,12.43
2018-06-05T12:37:50.707Z,11.53
2018-06-05T12:40:19.752Z,12.13
2018-06-05T12:42:48.827Z,11.33
2018-06-05T12:45:18.877Z,12.67
2018-06-05T12:47:47.930Z,12.23
2018-06-05T12:50:16.974Z,10.87
2018-06-05T12:52:46.047Z,10.33
2018-06-05T12:55:15.038Z,12.10
2018-06-05T12:57:44.143Z,11.60
2018-06-05T13:00:13.102Z,12.00
2018-06-05T13:02:42.167Z,12.23
2018-06-05T13:07:49.354Z,12.90
2018-06-05T13:10:18.354Z,12.03
2018-06-05T13:12:47.365Z,10.50
2018-06-05T13:15:16.415Z,11.07
2018-06-05T13:17:45.423Z,12.83
2018-06-05T13:20:14.398Z,11.23
2018-06-05T13:22:43.528Z,11.03
2018-06-05T13:25:12.462Z,11.27
2018-06-05T13:27:41.501Z,10.70
2018-06-05T13:30:10.661Z,11.47
2018-06-05T13:32:39.659Z,10.67
2018-06-05T13:35:08.656Z,10.73
2018-06-05T13:37:37.651Z,10.77
2018-06-05T13:40:06.627Z,9.40
2018-06-05T13:42:35.583Z,9.50
2018-06-05T13:45:04.830Z,8.47
2018-06-05T13:47:33.822Z,7.63
2018-06-05T13:50:02.854Z,8.30
2018-06-05T13:52:31.850Z,8.43
2018-06-05T13:55:00.790Z,8.03
2018-06-05T13:57:29.938Z,8.17
2018-06-05T13:59:58.898Z,9.30
2018-06-05T14:02:27.857Z,7.40
2018-06-05T14:04:56.810Z,7.30
2018-06-05T14:07:25.807Z,8.87
2018-06-05T14:09:54.795Z,7.37
2018-06-05T14:12:23.749Z,6.73
2018-06-05T14:14:52.746Z,6.77
2018-06-05T14:17:21.847Z,6.40
2018-06-05T14:19:50.875Z,7.30
2018-06-05T14:22:19.910Z,7.17
2018-06-05T14:24:48.914Z,7.10
2018-06-05T14:27:17.892Z,7.63
2018-06-05T14:29:46.890Z,7.97
2018-06-05T14:32:15.846Z,7.23
2018-06-05T14:34:44.946Z,8.43
2018-06-05T14:37:13.983Z,8.13
2018-06-05T14:39:43.050Z,7.50
2018-06-05T14:42:12.021Z,7.27
2018-06-05T14:44:41.015Z,7.77
2018-06-05T14:47:09.987Z,6.47
2018-06-05T14:49:38.995Z,7.00
2018-06-05T14:52:08.015Z,7.27
2018-06-05T14:54:37.079Z,7.30
2018-06-05T14:57:06.295Z,8.10
2018-06-05T14:59:35.291Z,9.50
2018-06-05T15:02:04.286Z,9.77
2018-06-05T15:04:33.332Z,9.30
2018-06-05T15:07:02.390Z,9.63
2018-06-05T15:09:31.471Z,11.90
2018-06-05T15:12:00.439Z,11.70
2018-06-05T15:14:29.505Z,10.70
2018-06-05T15:16:58.658Z,11.00
2018-06-05T15:19:27.606Z,8.80
2018-06-05T15:21:56.579Z,10.43
2018-06-05T15:24:25.894Z,11.50
2018-06-05T15:26:54.867Z,12.90
2018-06-05T15:29:23.866Z,11.97
2018-06-05T15:31:52.855Z,11.37
2018-06-05T15:34:21.867Z,14.50
2018-06-05T15:36:50.854Z,15.47
2018-06-05T15:39:19.872Z,17.00
2018-06-05T15:41:48.842Z,17.77
2018-06-05T15:44:17.846Z,19.67
2018-06-05T15:46:46.834Z,19.83
2018-06-05T15:49:15.818Z,19.43
2018-06-05T15:51:44.790Z,18.63
2018-06-05T15:54:13.900Z,18.57
2018-06-05T15:56:42.855Z,18.07
2018-06-05T15:59:11.982Z,17.27
2018-06-05T16:01:41.026Z,16.50
2018-06-05T16:04:10.034Z,15.70
2018-06-05T16:06:39.079Z,15.47
2018-06-05T16:09:09.303Z,13.90
2018-06-05T16:11:38.470Z,14.93
2018-06-05T16:14:07.491Z,15.70
2018-06-05T16:16:36.459Z,15.50
2018-06-05T16:19:05.491Z,15.40
2018-06-05T16:21:34.453Z,16.70
2018-06-05T16:24:03.479Z,16.00
2018-06-05T16:26:32.443Z,18.50
2018-06-05T16:29:01.467Z,17.50
2018-06-05T16:31:30.439Z,18.63
2018-06-05T16:33:59.416Z,18.53
2018-06-05T16:36:28.399Z,18.90
2018-06-05T16:38:57.372Z,17.80
2018-06-05T16:41:26.411Z,16.47
2018-06-05T16:43:55.396Z,15.90
2018-06-05T16:46:24.446Z,14.23
2018-06-05T16:48:53.466Z,12.93
2018-06-05T16:51:22.483Z,12.80
2018-06-05T16:53:51.450Z,12.23
2018-06-05T16:58:55.619Z,11.53
2018-06-05T17:01:24.722Z,10.10
2018-06-05T17:03:53.730Z,9.63
2018-06-05T17:06:22.778Z,9.33
2018-06-05T17:08:51.858Z,11.20
2018-06-05T17:11:20.870Z,11.07
2018-06-05T17:13:49.945Z,10.90
2018-06-05T17:16:18.950Z,10.70
2018-06-05T17:18:47.962Z,10.77
2018-06-05T17:21:16.955Z,9.87
2018-06-05T17:23:45.963Z,10.10
2018-06-05T17:26:15.039Z,9.73
2018-06-05T17:28:44.055Z,10.07
2018-06-05T17:31:13.036Z,10.00
2018-06-05T17:33:42.019Z,10.03
2018-06-05T17:36:10.978Z,9.03
2018-06-05T17:38:39.688Z,9.87
2018-06-05T17:41:08.515Z,9.50
2018-06-05T17:43:37.471Z,8.90
2018-06-05T17:46:06.455Z,8.93
2018-06-05T17:48:35.402Z,9.27
2018-06-05T17:51:04.577Z,9.40
2018-06-05T17:53:33.547Z,9.20
2018-06-05T17:56:02.601Z,8.97
2018-06-05T17:58:31.599Z,9.50
2018-06-05T18:01:00.617Z,9.67
2018-06-05T18:03:29.570Z,9.90
2018-06-05T18:05:58.546Z,10.47
2018-06-05T18:08:27.655Z,10.40
2018-06-05T18:10:56.726Z,10.70
2018-06-05T18:13:25.686Z,11.33
2018-06-05T18:15:54.820Z,10.90
2018-06-05T18:18:23.922Z,11.37
2018-06-05T18:20:52.906Z,12.13
2018-06-05T18:23:21.906Z,12.50
2018-06-05T18:25:50.987Z,12.87
2018-06-05T18:28:19.969Z,13.67
2018-06-05T18:30:48.951Z,14.80
2018-06-05T18:33:17.912Z,15.40
2018-06-05T18:35:46.898Z,15.47
2018-06-05T18:38:15.919Z,16.13
2018-06-05T18:40:45.808Z,17.87
2018-06-05T18:43:14.797Z,17.07
2018-06-05T18:45:43.751Z,18.53
2018-06-05T18:48:12.785Z,17.93
2018-06-05T18:50:41.798Z,17.83
2018-06-05T18:53:10.777Z,18.20
2018-06-05T18:55:39.816Z,19.60
2018-06-05T18:58:08.761Z,19.20
2018-06-05T19:00:37.790Z,21.53
2018-06-05T19:03:06.812Z,20.47
2018-06-05T19:05:35.816Z,21.27
2018-06-05T19:08:05.055Z,20.50
2018-06-05T19:10:34.006Z,21.80
2018-06-05T19:13:03.014Z,21.73
2018-06-05T19:15:32.179Z,22.13
2018-06-05T19:18:01.340Z,24.10
2018-06-05T19:20:30.345Z,23.13
2018-06-05T19:22:59.323Z,23.00
2018-06-05T19:25:28.455Z,23.93
2018-06-05T19:27:57.655Z,23.67
2018-06-05T19:30:26.704Z,24.20
2018-06-05T19:32:55.738Z,24.50
2018-06-05T19:35:24.995Z,25.33
2018-06-05T19:37:54.320Z,24.57
2018-06-05T19:40:24.107Z,25.47
2018-06-05T19:42:53.110Z,23.87
2018-06-05T19:45:22.105Z,24.20
2018-06-05T19:47:51.230Z,23.43
2018-06-05T19:50:20.278Z,23.83
2018-06-05T19:52:49.270Z,24.17
2018-06-05T19:55:18.326Z,25.07
2018-06-05T19:57:47.512Z,24.97
2018-06-05T20:00:16.466Z,23.87
2018-06-05T20:02:45.474Z,24.97
2018-06-05T20:05:15.765Z,24.70
2018-06-05T20:07:45.068Z,23.70
2018-06-05T20:10:14.147Z,24.77
2018-06-05T20:12:43.146Z,24.30
2018-06-05T20:15:12.330Z,26.07
2018-06-05T20:17:41.342Z,26.33
2018-06-05T20:20:11.550Z,26.00
2018-06-05T20:22:40.561Z,25.73
2018-06-05T20:25:09.526Z,27.17
2018-06-05T20:27:39.831Z,25.73
2018-06-05T20:30:08.928Z,25.00
2018-06-05T20:32:37.965Z,25.60
2018-06-05T20:35:06.956Z,25.63
2018-06-05T20:37:35.934Z,25.07
2018-06-05T20:40:04.966Z,26.77
2018-06-05T20:42:33.962Z,25.43
2018-06-05T20:45:03.079Z,25.93
2018-06-05T20:47:32.102Z,26.10
2018-06-05T20:50:01.071Z,27.00
2018-06-05T20:52:29.978Z,25.10
2018-06-05T20:54:59.108Z,26.93
2018-06-05T20:57:28.206Z,25.77
2018-06-05T20:59:57.202Z,25.73
2018-06-05T21:02:26.154Z,25.97
2018-06-05T21:04:55.187Z,27.93
2018-06-05T21:07:24.139Z,26.47
2018-06-05T21:09:53.127Z,25.83
2018-06-05T21:12:22.094Z,25.60
2018-06-05T21:14:51.062Z,25.77
2018-06-05T21:17:20.010Z,26.30
2018-06-05T21:19:49.009Z,26.00
2018-06-05T21:22:18.056Z,26.73
2018-06-05T21:24:47.130Z,26.30
2018-06-05T21:27:16.155Z,25.60
2018-06-05T21:29:45.130Z,28.20
2018-06-05T21:32:14.130Z,28.80
2018-06-05T21:34:43.162Z,28.23
2018-06-05T21:37:12.173Z,27.10
2018-06-05T21:39:41.074Z,28.67
2018-06-05T21:42:10.087Z,30.10
2018-06-05T21:44:39.042Z,30.03
2018-06-05T21:47:08.085Z,29.97
2018-06-05T21:49:37.038Z,32.83
2018-06-05T21:52:06.102Z,32.33
2018-06-05T21:54:35.128Z,32.03
2018-06-05T21:57:04.103Z,31.60
2018-06-05T21:59:33.060Z,34.63
2018-06-05T22:02:03.291Z,33.60
2018-06-05T22:04:32.282Z,32.80
2018-06-05T22:07:01.399Z,34.80
2018-06-05T22:09:30.405Z,35.27
2018-06-05T22:11:59.470Z,35.17
2018-06-05T22:14:28.501Z,35.73
2018-06-05T22:16:57.507Z,33.77
2018-06-05T22:19:26.461Z,35.53
2018-06-05T22:21:55.458Z,35.03
2018-06-05T22:24:24.435Z,34.57
2018-06-05T22:26:53.459Z,35.93
2018-06-05T22:29:22.427Z,36.40
2018-06-05T22:31:51.433Z,34.70
2018-06-05T22:34:20.449Z,34.47
2018-06-05T22:36:49.439Z,36.13
2018-06-05T22:39:18.446Z,36.83
2018-06-05T22:41:47.442Z,37.33
2018-06-05T22:44:16.426Z,39.73
2018-06-05T22:46:45.447Z,36.53
2018-06-05T22:49:14.474Z,37.70
2018-06-05T22:51:43.429Z,36.23
2018-06-05T22:54:12.455Z,37.20
2018-06-05T22:56:41.450Z,39.20
2018-06-05T22:59:10.443Z,40.13
2018-06-05T23:01:39.421Z,41.10
2018-06-05T23:04:08.379Z,41.97
2018-06-05T23:06:37.390Z,40.20
2018-06-05T23:09:06.965Z,43.50
2018-06-05T23:11:36.078Z,42.87
2018-06-05T23:14:05.047Z,41.73
2018-06-05T23:16:34.194Z,41.43
2018-06-05T23:19:03.144Z,42.47
2018-06-05T23:21:32.159Z,41.17
2018-06-05T23:24:01.110Z,41.20
2018-06-05T23:26:30.124Z,42.27
2018-06-05T23:28:59.182Z,39.70
2018-06-05T23:31:28.213Z,42.47
2018-06-05T23:33:57.182Z,43.43
2018-06-05T23:36:26.158Z,43.13
2018-06-05T23:38:55.297Z,41.97
2018-06-05T23:41:24.309Z,40.20
2018-06-05T23:43:53.283Z,41.40
2018-06-05T23:46:22.271Z,42.07
2018-06-05T23:48:51.246Z,44.00
2018-06-05T23:51:20.211Z,44.63
2018-06-05T23:53:49.211Z,43.73
2018-06-05T23:56:18.203Z,43.47
2018-06-05T23:58:47.227Z,40.93
